sensor_id;sensor_type;location;lat;lon;timestamp;P1;durP1;ratioP1;P2;durP2;ratioP2
17006;SDS011;8620;51.168;4.154;2023-04-07T07:01:22;2.87;;;2.77;;
17006;SDS011;8620;51.168;4.154;2023-04-07T07:03:57;1.63;;;1.63;;
17006;SDS011;8620;51.168;4.154;2023-04-07T07:06:27;1.60;;;1.60;;
17006;SDS011;8620;51.168;4.154;2023-04-07T07:09:00;1.60;;;1.60;;
17006;SDS011;8620;51.168;4.154;2023-04-07T07:11:29;1.90;;;1.90;;
17006;SDS011;8620;51.168;4.154;2023-04-07T07:14:01;1.60;;;1.60;;
17006;SDS011;8620;51.168;4.154;2023-04-07T07:16:27;1.50;;;1.50;;
17006;SDS011;8620;51.168;4.154;2023-04-07T07:18:59;1.80;;;1.80;;
17006;SDS011;8620;51.168;4.154;2023-04-07T07:21:28;1.50;;;1.50;;
17006;SDS011;8620;51.168;4.154;2023-04-07T07:23:56;2.40;;;2.30;;
17006;SDS011;8620;51.168;4.154;2023-04-07T07:26:25;1.80;;;1.80;;
17006;SDS011;8620;51.168;4.154;2023-04-07T07:28:51;1.70;;;1.70;;
17006;SDS011;8620;51.168;4.154;2023-04-07T07:31:17;1.87;;;1.87;;
17006;SDS011;8620;51.168;4.154;2023-04-07T07:33:43;1.93;;;1.93;;
17006;SDS011;8620;51.168;4.154;2023-04-07T07:36:10;1.70;;;1.70;;
17006;SDS011;8620;51.168;4.154;2023-04-07T07:38:39;1.90;;;1.90;;
17006;SDS011;8620;51.168;4.154;2023-04-07T07:41:07;1.80;;;1.80;;
17006;SDS011;8620;51.168;4.154;2023-04-07T07:43:33;1.80;;;1.80;;
17006;SDS011;8620;51.168;4.154;2023-04-07T07:46:04;1.90;;;1.90;;
17006;SDS011;8620;51.168;4.154;2023-04-07T07:48:32;1.90;;;1.90;;
17006;SDS011;8620;51.168;4.154;2023-04-07T07:51:07;1.90;;;1.90;;
17006;SDS011;8620;51.168;4.154;2023-04-07T07:53:33;2.20;;;2.20;;
17006;SDS011;8620;51.168;4.154;2023-04-07T07:55:59;2.30;;;2.30;;
17006;SDS011;8620;51.168;4.154;2023-04-07T07:58:25;2.93;;;2.83;;
17006;SDS011;8620;51.168;4.154;2023-04-07T08:00:54;2.13;;;2.13;;
17006;SDS011;8620;51.168;4.154;2023-04-07T08:03:22;2.07;;;2.07;;
17006;SDS011;8620;51.168;4.154;2023-04-07T08:05:51;2.10;;;2.10;;
17006;SDS011;8620;51.168;4.154;2023-04-07T08:08:17;1.97;;;1.97;;
17006;SDS011;8620;51.168;4.154;2023-04-07T08:10:43;2.00;;;2.00;;
17006;SDS011;8620;51.168;4.154;2023-04-07T08:13:11;2.30;;;2.30;;
17006;SDS011;8620;51.168;4.154;2023-04-07T08:15:38;2.20;;;2.17;;
17006;SDS011;8620;51.168;4.154;2023-04-07T08:18:07;3.07;;;2.87;;
17006;SDS011;8620;51.168;4.154;2023-04-07T08:20:33;1.83;;;1.83;;
17006;SDS011;8620;51.168;4.154;2023-04-07T08:23:03;1.90;;;1.90;;
17006;SDS011;8620;51.168;4.154;2023-04-07T08:25:29;1.60;;;1.60;;
17006;SDS011;8620;51.168;4.154;2023-04-07T08:27:59;3.07;;;2.97;;
17006;SDS011;8620;51.168;4.154;2023-04-07T08:30:27;2.00;;;2.00;;
17006;SDS011;8620;51.168;4.154;2023-04-07T08:32:58;1.60;;;1.60;;
17006;SDS011;8620;51.168;4.154;2023-04-07T08:35:24;1.30;;;1.30;;
17006;SDS011;8620;51.168;4.154;2023-04-07T08:37:50;1.20;;;1.20;;
17006;SDS011;8620;51.168;4.154;2023-04-07T08:40:19;1.30;;;1.30;;
17006;SDS011;8620;51.168;4.154;2023-04-07T08:42:48;1.20;;;1.20;;
17006;SDS011;8620;51.168;4.154;2023-04-07T08:45:15;1.30;;;1.30;;
17006;SDS011;8620;51.168;4.154;2023-04-07T08:47:42;1.00;;;1.00;;
17006;SDS011;8620;51.168;4.154;2023-04-07T08:50:12;0.70;;;0.70;;
17006;SDS011;8620;51.168;4.154;2023-04-07T08:52:49;0.60;;;0.60;;
17006;SDS011;8620;51.168;4.154;2023-04-07T08:55:18;0.50;;;0.50;;
17006;SDS011;8620;51.168;4.154;2023-04-07T08:57:45;0.50;;;0.50;;
17006;SDS011;8620;51.168;4.154;2023-04-07T09:00:11;0.40;;;0.40;;
17006;SDS011;8620;51.168;4.154;2023-04-07T09:02:39;0.67;;;0.67;;
17006;SDS011;8620;51.168;4.154;2023-04-07T09:05:12;1.33;;;0.33;;
17006;SDS011;8620;51.168;4.154;2023-04-07T09:07:38;2.30;;;2.20;;
17006;SDS011;8620;51.168;4.154;2023-04-07T09:10:07;0.50;;;0.50;;
17006;SDS011;8620;51.168;4.154;2023-04-07T09:12:34;0.40;;;0.40;;
17006;SDS011;8620;51.168;4.154;2023-04-07T09:15:00;0.40;;;0.40;;
17006;SDS011;8620;51.168;4.154;2023-04-07T09:17:29;0.40;;;0.40;;
17006;SDS011;8620;51.168;4.154;2023-04-07T09:19:55;0.40;;;0.40;;
17006;SDS011;8620;51.168;4.154;2023-04-07T09:22:39;0.67;;;0.67;;
17006;SDS011;8620;51.168;4.154;2023-04-07T09:30:28;0.80;;;0.80;;
17006;SDS011;8620;51.168;4.154;2023-04-07T09:32:56;0.40;;;0.40;;
17006;SDS011;8620;51.168;4.154;2023-04-07T09:35:26;0.30;;;0.30;;
17006;SDS011;8620;51.168;4.154;2023-04-07T09:38:00;0.60;;;0.60;;
17006;SDS011;8620;51.168;4.154;2023-04-07T09:40:30;0.50;;;0.50;;
17006;SDS011;8620;51.168;4.154;2023-04-07T09:42:57;0.47;;;0.47;;
17006;SDS011;8620;51.168;4.154;2023-04-07T09:45:24;0.40;;;0.40;;
17006;SDS011;8620;51.168;4.154;2023-04-07T09:48:05;0.33;;;0.33;;
17006;SDS011;8620;51.168;4.154;2023-04-07T09:51:07;1.57;;;0.83;;
17006;SDS011;8620;51.168;4.154;2023-04-07T09:53:50;0.30;;;0.30;;
17006;SDS011;8620;51.168;4.154;2023-04-07T09:56:17;0.90;;;0.87;;
17006;SDS011;8620;51.168;4.154;2023-04-07T09:58:46;0.30;;;0.30;;
17006;SDS011;8620;51.168;4.154;2023-04-07T10:01:19;1.53;;;1.43;;
17006;SDS011;8620;51.168;4.154;2023-04-07T10:03:51;4.10;;;0.63;;
17006;SDS011;8620;51.168;4.154;2023-04-07T10:06:20;1.47;;;0.87;;
17006;SDS011;8620;51.168;4.154;2023-04-07T10:08:52;1.43;;;1.33;;
17006;SDS011;8620;51.168;4.154;2023-04-07T10:11:20;0.70;;;0.70;;
17006;SDS011;8620;51.168;4.154;2023-04-07T10:13:49;0.30;;;0.30;;
17006;SDS011;8620;51.168;4.154;2023-04-07T10:16:15;0.30;;;0.30;;
17006;SDS011;8620;51.168;4.154;2023-04-07T10:19:02;0.57;;;0.57;;
17006;SDS011;8620;51.168;4.154;2023-04-07T10:36:18;0.20;;;0.20;;
17006;SDS011;8620;51.168;4.154;2023-04-07T10:41:37;1.70;;;1.60;;
17006;SDS011;8620;51.168;4.154;2023-04-07T10:47:11;0.20;;;0.20;;
17006;SDS011;8620;51.168;4.154;2023-04-07T10:50:13;0.20;;;0.20;;
17006;SDS011;8620;51.168;4.154;2023-04-07T10:53:03;3.93;;;0.53;;
17006;SDS011;8620;51.168;4.154;2023-04-07T10:55:45;0.30;;;0.30;;
17006;SDS011;8620;51.168;4.154;2023-04-07T10:58:25;0.83;;;0.63;;
17006;SDS011;8620;51.168;4.154;2023-04-07T11:03:28;0.10;;;0.10;;
17006;SDS011;8620;51.168;4.154;2023-04-07T11:06:11;0.10;;;0.10;;
17006;SDS011;8620;51.168;4.154;2023-04-07T11:11:11;0.70;;;0.70;;
17006;SDS011;8620;51.168;4.154;2023-04-07T11:13:40;0.20;;;0.20;;
17006;SDS011;8620;51.168;4.154;2023-04-07T11:16:17;0.10;;;0.10;;
17006;SDS011;8620;51.168;4.154;2023-04-07T11:18:44;0.20;;;0.20;;
17006;SDS011;8620;51.168;4.154;2023-04-07T11:21:20;0.10;;;0.10;;
17006;SDS011;8620;51.168;4.154;2023-04-07T11:23:47;0.20;;;0.20;;
17006;SDS011;8620;51.168;4.154;2023-04-07T11:26:13;0.87;;;0.87;;
17006;SDS011;8620;51.168;4.154;2023-04-07T11:28:46;0.93;;;0.93;;
17006;SDS011;8620;51.168;4.154;2023-04-07T11:33:59;0.10;;;0.10;;
17006;SDS011;8620;51.168;4.154;2023-04-07T11:36:29;0.20;;;0.20;;
17006;SDS011;8620;51.168;4.154;2023-04-07T11:39:04;0.20;;;0.20;;
17006;SDS011;8620;51.168;4.154;2023-04-07T11:41:53;0.20;;;0.20;;
17006;SDS011;8620;51.168;4.154;2023-04-07T11:44:21;0.10;;;0.10;;
17006;SDS011;8620;51.168;4.154;2023-04-07T11:47:01;0.20;;;0.20;;
17006;SDS011;8620;51.168;4.154;2023-04-07T11:49:33;0.20;;;0.20;;
17006;SDS011;8620;51.168;4.154;2023-04-07T11:52:04;0.20;;;0.20;;
17006;SDS011;8620;51.168;4.154;2023-04-07T11:54:46;0.20;;;0.20;;
17006;SDS011;8620;51.168;4.154;2023-04-07T11:57:30;0.70;;;0.70;;
17006;SDS011;8620;51.168;4.154;2023-04-07T12:00:06;0.20;;;0.20;;
17006;SDS011;8620;51.168;4.154;2023-04-07T12:02:33;2.70;;;1.17;;
17006;SDS011;8620;51.168;4.154;2023-04-07T12:05:03;0.10;;;0.10;;
17006;SDS011;8620;51.168;4.154;2023-04-07T12:07:31;0.13;;;0.13;;
17006;SDS011;8620;51.168;4.154;2023-04-07T12:10:18;1.47;;;0.40;;
17006;SDS011;8620;51.168;4.154;2023-04-07T12:13:06;0.40;;;0.40;;
17006;SDS011;8620;51.168;4.154;2023-04-07T12:15:51;0.40;;;0.40;;
17006;SDS011;8620;51.168;4.154;2023-04-07T12:18:37;0.20;;;0.20;;
17006;SDS011;8620;51.168;4.154;2023-04-07T12:21:08;0.20;;;0.20;;
17006;SDS011;8620;51.168;4.154;2023-04-07T12:23:39;0.20;;;0.20;;
17006;SDS011;8620;51.168;4.154;2023-04-07T12:26:06;0.20;;;0.20;;
17006;SDS011;8620;51.168;4.154;2023-04-07T12:28:32;1.43;;;0.40;;
17006;SDS011;8620;51.168;4.154;2023-04-07T12:30:58;0.23;;;0.23;;
17006;SDS011;8620;51.168;4.154;2023-04-07T12:33:26;0.20;;;0.20;;
17006;SDS011;8620;51.168;4.154;2023-04-07T12:36:01;0.20;;;0.20;;
17006;SDS011;8620;51.168;4.154;2023-04-07T12:38:26;0.87;;;0.83;;
17006;SDS011;8620;51.168;4.154;2023-04-07T12:41:01;0.10;;;0.10;;
17006;SDS011;8620;51.168;4.154;2023-04-07T12:43:33;0.40;;;0.40;;
17006;SDS011;8620;51.168;4.154;2023-04-07T12:49:09;0.10;;;0.10;;
17006;SDS011;8620;51.168;4.154;2023-04-07T12:51:59;0.20;;;0.20;;
17006;SDS011;8620;51.168;4.154;2023-04-07T12:54:26;0.30;;;0.30;;
17006;SDS011;8620;51.168;4.154;2023-04-07T12:57:20;0.20;;;0.20;;
17006;SDS011;8620;51.168;4.154;2023-04-07T12:59:49;0.60;;;0.60;;
17006;SDS011;8620;51.168;4.154;2023-04-07T13:02:35;0.20;;;0.20;;
17006;SDS011;8620;51.168;4.154;2023-04-07T13:05:29;0.20;;;0.20;;
17006;SDS011;8620;51.168;4.154;2023-04-07T13:07:58;0.10;;;0.10;;
17006;SDS011;8620;51.168;4.154;2023-04-07T13:10:44;0.53;;;0.50;;
17006;SDS011;8620;51.168;4.154;2023-04-07T13:13:10;0.20;;;0.20;;
17006;SDS011;8620;51.168;4.154;2023-04-07T13:15:41;0.20;;;0.20;;
17006;SDS011;8620;51.168;4.154;2023-04-07T13:18:07;0.20;;;0.20;;
17006;SDS011;8620;51.168;4.154;2023-04-07T13:20:41;0.20;;;0.20;;
17006;SDS011;8620;51.168;4.154;2023-04-07T13:23:20;0.50;;;0.50;;
17006;SDS011;8620;51.168;4.154;2023-04-07T13:25:53;3.03;;;0.80;;
17006;SDS011;8620;51.168;4.154;2023-04-07T13:28:19;0.10;;;0.10;;
17006;SDS011;8620;51.168;4.154;2023-04-07T13:30:48;0.10;;;0.10;;
17006;SDS011;8620;51.168;4.154;2023-04-07T13:33:13;0.20;;;0.20;;
17006;SDS011;8620;51.168;4.154;2023-04-07T13:35:39;0.20;;;0.20;;
17006;SDS011;8620;51.168;4.154;2023-04-07T13:38:07;0.30;;;0.30;;
17006;SDS011;8620;51.168;4.154;2023-04-07T13:40:39;0.10;;;0.10;;
17006;SDS011;8620;51.168;4.154;2023-04-07T13:43:09;0.20;;;0.20;;
17006;SDS011;8620;51.168;4.154;2023-04-07T13:45:36;0.10;;;0.10;;
17006;SDS011;8620;51.168;4.154;2023-04-07T13:48:02;0.20;;;0.20;;
17006;SDS011;8620;51.168;4.154;2023-04-07T13:50:28;0.20;;;0.20;;
17006;SDS011;8620;51.168;4.154;2023-04-07T13:53:01;0.40;;;0.40;;
17006;SDS011;8620;51.168;4.154;2023-04-07T13:55:26;0.10;;;0.10;;
17006;SDS011;8620;51.168;4.154;2023-04-07T13:57:53;0.10;;;0.10;;
17006;SDS011;8620;51.168;4.154;2023-04-07T14:00:19;0.17;;;0.17;;
17006;SDS011;8620;51.168;4.154;2023-04-07T14:02:49;0.20;;;0.20;;
17006;SDS011;8620;51.168;4.154;2023-04-07T14:05:15;0.20;;;0.20;;
17006;SDS011;8620;51.168;4.154;2023-04-07T14:07:40;0.10;;;0.10;;
17006;SDS011;8620;51.168;4.154;2023-04-07T14:10:06;0.10;;;0.10;;
17006;SDS011;8620;51.168;4.154;2023-04-07T14:12:32;0.40;;;0.40;;
17006;SDS011;8620;51.168;4.154;2023-04-07T14:15:00;0.10;;;0.10;;
17006;SDS011;8620;51.168;4.154;2023-04-07T14:17:33;0.50;;;0.50;;
17006;SDS011;8620;51.168;4.154;2023-04-07T14:20:13;0.10;;;0.10;;
17006;SDS011;8620;51.168;4.154;2023-04-07T14:22:57;0.10;;;0.10;;
17006;SDS011;8620;51.168;4.154;2023-04-07T14:25:23;1.07;;;1.07;;
17006;SDS011;8620;51.168;4.154;2023-04-07T14:27:53;0.10;;;0.10;;
17006;SDS011;8620;51.168;4.154;2023-04-07T14:30:19;0.77;;;0.77;;
17006;SDS011;8620;51.168;4.154;2023-04-07T14:32:52;0.70;;;0.50;;
17006;SDS011;8620;51.168;4.154;2023-04-07T14:35:18;2.90;;;1.23;;
17006;SDS011;8620;51.168;4.154;2023-04-07T14:37:49;0.20;;;0.20;;
17006;SDS011;8620;51.168;4.154;2023-04-07T14:40:16;0.10;;;0.10;;
17006;SDS011;8620;51.168;4.154;2023-04-07T14:42:45;1.90;;;0.83;;
17006;SDS011;8620;51.168;4.154;2023-04-07T14:45:11;0.40;;;0.40;;
17006;SDS011;8620;51.168;4.154;2023-04-07T14:47:37;0.20;;;0.20;;
17006;SDS011;8620;51.168;4.154;2023-04-07T14:50:04;1.30;;;0.37;;
17006;SDS011;8620;51.168;4.154;2023-04-07T14:52:32;6.33;;;0.70;;
17006;SDS011;8620;51.168;4.154;2023-04-07T14:54:58;0.20;;;0.20;;
17006;SDS011;8620;51.168;4.154;2023-04-07T14:57:26;0.10;;;0.10;;
17006;SDS011;8620;51.168;4.154;2023-04-07T14:59:53;0.30;;;0.30;;
17006;SDS011;8620;51.168;4.154;2023-04-07T15:02:19;0.10;;;0.10;;
17006;SDS011;8620;51.168;4.154;2023-04-07T15:04:45;0.30;;;0.30;;
17006;SDS011;8620;51.168;4.154;2023-04-07T15:07:11;0.10;;;0.10;;
17006;SDS011;8620;51.168;4.154;2023-04-07T15:09:37;0.10;;;0.10;;
17006;SDS011;8620;51.168;4.154;2023-04-07T15:12:03;0.10;;;0.10;;
17006;SDS011;8620;51.168;4.154;2023-04-07T15:14:31;0.10;;;0.10;;
17006;SDS011;8620;51.168;4.154;2023-04-07T15:16:57;0.10;;;0.10;;
17006;SDS011;8620;51.168;4.154;2023-04-07T15:19:26;0.13;;;0.13;;
17006;SDS011;8620;51.168;4.154;2023-04-07T15:21:52;0.40;;;0.40;;
17006;SDS011;8620;51.168;4.154;2023-04-07T15:24:18;0.30;;;0.30;;
17006;SDS011;8620;51.168;4.154;2023-04-07T15:26:48;0.60;;;0.60;;
17006;SDS011;8620;51.168;4.154;2023-04-07T15:29:16;0.83;;;0.67;;
17006;SDS011;8620;51.168;4.154;2023-04-07T15:31:45;0.20;;;0.20;;
17006;SDS011;8620;51.168;4.154;2023-04-07T15:34:16;0.20;;;0.20;;
17006;SDS011;8620;51.168;4.154;2023-04-07T15:36:45;6.80;;;4.33;;
17006;SDS011;8620;51.168;4.154;2023-04-07T15:39:11;0.10;;;0.10;;
17006;SDS011;8620;51.168;4.154;2023-04-07T15:41:37;0.10;;;0.10;;
17006;SDS011;8620;51.168;4.154;2023-04-07T15:44:03;0.17;;;0.17;;
17006;SDS011;8620;51.168;4.154;2023-04-07T15:46:32;0.60;;;0.60;;
17006;SDS011;8620;51.168;4.154;2023-04-07T15:49:00;0.27;;;0.27;;
17006;SDS011;8620;51.168;4.154;2023-04-07T15:51:26;0.20;;;0.20;;
17006;SDS011;8620;51.168;4.154;2023-04-07T15:53:59;0.20;;;0.20;;
17006;SDS011;8620;51.168;4.154;2023-04-07T15:56:30;0.23;;;0.23;;
17006;SDS011;8620;51.168;4.154;2023-04-07T15:58:59;0.43;;;0.43;;
17006;SDS011;8620;51.168;4.154;2023-04-07T16:01:28;0.10;;;0.10;;
17006;SDS011;8620;51.168;4.154;2023-04-07T16:03:59;0.30;;;0.30;;
17006;SDS011;8620;51.168;4.154;2023-04-07T16:06:34;0.10;;;0.10;;
17006;SDS011;8620;51.168;4.154;2023-04-07T16:09:08;0.87;;;0.37;;
17006;SDS011;8620;51.168;4.154;2023-04-07T16:11:57;0.10;;;0.10;;
17006;SDS011;8620;51.168;4.154;2023-04-07T16:14:36;0.20;;;0.20;;
17006;SDS011;8620;51.168;4.154;2023-04-07T16:17:25;0.20;;;0.20;;
17006;SDS011;8620;51.168;4.154;2023-04-07T16:19:57;0.10;;;0.10;;
17006;SDS011;8620;51.168;4.154;2023-04-07T16:22:59;0.10;;;0.10;;
17006;SDS011;8620;51.168;4.154;2023-04-07T16:31:45;0.10;;;0.10;;
17006;SDS011;8620;51.168;4.154;2023-04-07T16:34:33;0.20;;;0.20;;
17006;SDS011;8620;51.168;4.154;2023-04-07T16:37:01;0.10;;;0.10;;
17006;SDS011;8620;51.168;4.154;2023-04-07T16:39:59;0.10;;;0.10;;
17006;SDS011;8620;51.168;4.154;2023-04-07T16:42:38;0.20;;;0.20;;
17006;SDS011;8620;51.168;4.154;2023-04-07T16:45:10;0.20;;;0.20;;
17006;SDS011;8620;51.168;4.154;2023-04-07T16:48:04;0.10;;;0.10;;
17006;SDS011;8620;51.168;4.154;2023-04-07T16:50:40;0.20;;;0.20;;
17006;SDS011;8620;51.168;4.154;2023-04-07T16:56:13;0.50;;;0.50;;
17006;SDS011;8620;51.168;4.154;2023-04-07T16:58:43;0.20;;;0.20;;
17006;SDS011;8620;51.168;4.154;2023-04-07T17:01:14;0.30;;;0.30;;
17006;SDS011;8620;51.168;4.154;2023-04-07T17:03:45;0.20;;;0.20;;
17006;SDS011;8620;51.168;4.154;2023-04-07T17:06:19;0.10;;;0.10;;
17006;SDS011;8620;51.168;4.154;2023-04-07T17:08:45;0.10;;;0.10;;
17006;SDS011;8620;51.168;4.154;2023-04-07T17:11:34;0.30;;;0.30;;
17006;SDS011;8620;51.168;4.154;2023-04-07T17:16:54;0.20;;;0.20;;
17006;SDS011;8620;51.168;4.154;2023-04-07T17:19:50;0.20;;;0.20;;
17006;SDS011;8620;51.168;4.154;2023-04-07T17:25:20;0.30;;;0.30;;
17006;SDS011;8620;51.168;4.154;2023-04-07T17:27:48;0.20;;;0.20;;
17006;SDS011;8620;51.168;4.154;2023-04-07T17:30:23;0.13;;;0.13;;
17006;SDS011;8620;51.168;4.154;2023-04-07T17:33:10;0.80;;;0.80;;
17006;SDS011;8620;51.168;4.154;2023-04-07T17:35:36;0.20;;;0.20;;
17006;SDS011;8620;51.168;4.154;2023-04-07T17:38:04;0.20;;;0.20;;
17006;SDS011;8620;51.168;4.154;2023-04-07T17:40:38;0.20;;;0.20;;
17006;SDS011;8620;51.168;4.154;2023-04-07T17:43:43;0.20;;;0.20;;
17006;SDS011;8620;51.168;4.154;2023-04-07T17:46:17;0.30;;;0.30;;
17006;SDS011;8620;51.168;4.154;2023-04-07T17:48:49;0.20;;;0.20;;
17006;SDS011;8620;51.168;4.154;2023-04-07T17:51:24;0.20;;;0.20;;
17006;SDS011;8620;51.168;4.154;2023-04-07T17:53:59;0.20;;;0.20;;
17006;SDS011;8620;51.168;4.154;2023-04-07T17:56:30;0.47;;;0.47;;
17006;SDS011;8620;51.168;4.154;2023-04-07T17:59:22;0.20;;;0.20;;
17006;SDS011;8620;51.168;4.154;2023-04-07T18:01:48;0.20;;;0.20;;
17006;SDS011;8620;51.168;4.154;2023-04-07T18:04:39;0.33;;;0.33;;
17006;SDS011;8620;51.168;4.154;2023-04-07T18:07:29;0.30;;;0.30;;
17006;SDS011;8620;51.168;4.154;2023-04-07T18:09:55;0.20;;;0.20;;
17006;SDS011;8620;51.168;4.154;2023-04-07T18:12:22;0.20;;;0.20;;
17006;SDS011;8620;51.168;4.154;2023-04-07T18:14:50;0.20;;;0.20;;
17006;SDS011;8620;51.168;4.154;2023-04-07T18:17:29;0.20;;;0.20;;
17006;SDS011;8620;51.168;4.154;2023-04-07T18:19:55;0.30;;;0.30;;
17006;SDS011;8620;51.168;4.154;2023-04-07T18:22:39;0.20;;;0.20;;
17006;SDS011;8620;51.168;4.154;2023-04-07T18:25:08;0.20;;;0.20;;
17006;SDS011;8620;51.168;4.154;2023-04-07T18:27:49;0.20;;;0.20;;
17006;SDS011;8620;51.168;4.154;2023-04-07T18:30:19;1.70;;;1.60;;
17006;SDS011;8620;51.168;4.154;2023-04-07T18:32:47;0.20;;;0.20;;
17006;SDS011;8620;51.168;4.154;2023-04-07T18:35:19;0.20;;;0.20;;
17006;SDS011;8620;51.168;4.154;2023-04-07T18:37:57;0.20;;;0.20;;
17006;SDS011;8620;51.168;4.154;2023-04-07T18:40:28;0.20;;;0.20;;
17006;SDS011;8620;51.168;4.154;2023-04-07T18:43:04;0.20;;;0.20;;
17006;SDS011;8620;51.168;4.154;2023-04-07T18:45:38;0.20;;;0.20;;
17006;SDS011;8620;51.168;4.154;2023-04-07T18:48:22;0.20;;;0.20;;
17006;SDS011;8620;51.168;4.154;2023-04-07T18:50:58;0.40;;;0.40;;
17006;SDS011;8620;51.168;4.154;2023-04-07T18:53:24;0.60;;;0.60;;
17006;SDS011;8620;51.168;4.154;2023-04-07T18:56:01;1.60;;;1.07;;
17006;SDS011;8620;51.168;4.154;2023-04-07T18:58:41;0.20;;;0.20;;
17006;SDS011;8620;51.168;4.154;2023-04-07T19:01:10;0.20;;;0.20;;
17006;SDS011;8620;51.168;4.154;2023-04-07T19:03:44;0.23;;;0.23;;
17006;SDS011;8620;51.168;4.154;2023-04-07T19:06:13;0.20;;;0.20;;
17006;SDS011;8620;51.168;4.154;2023-04-07T19:08:42;0.20;;;0.20;;
17006;SDS011;8620;51.168;4.154;2023-04-07T19:11:14;0.20;;;0.20;;
17006;SDS011;8620;51.168;4.154;2023-04-07T19:13:48;0.20;;;0.20;;
17006;SDS011;8620;51.168;4.154;2023-04-07T19:16:16;0.27;;;0.27;;
17006;SDS011;8620;51.168;4.154;2023-04-07T19:18:51;0.20;;;0.20;;
17006;SDS011;8620;51.168;4.154;2023-04-07T19:21:18;0.20;;;0.20;;
17006;SDS011;8620;51.168;4.154;2023-04-07T19:23:50;0.43;;;0.43;;
17006;SDS011;8620;51.168;4.154;2023-04-07T19:26:25;0.20;;;0.20;;
17006;SDS011;8620;51.168;4.154;2023-04-07T19:29:15;0.20;;;0.20;;
17006;SDS011;8620;51.168;4.154;2023-04-07T19:31:47;0.20;;;0.20;;
17006;SDS011;8620;51.168;4.154;2023-04-07T19:34:36;0.30;;;0.30;;
17006;SDS011;8620;51.168;4.154;2023-04-07T19:40:27;0.60;;;0.60;;
17006;SDS011;8620;51.168;4.154;2023-04-07T19:43:01;0.20;;;0.20;;
17006;SDS011;8620;51.168;4.154;2023-04-07T19:45:35;0.20;;;0.20;;
17006;SDS011;8620;51.168;4.154;2023-04-07T19:48:12;0.30;;;0.30;;
17006;SDS011;8620;51.168;4.154;2023-04-07T19:50:44;0.20;;;0.20;;
17006;SDS011;8620;51.168;4.154;2023-04-07T19:53:24;0.20;;;0.20;;
17006;SDS011;8620;51.168;4.154;2023-04-07T19:55:57;0.30;;;0.30;;
17006;SDS011;8620;51.168;4.154;2023-04-07T19:58:31;0.20;;;0.20;;
17006;SDS011;8620;51.168;4.154;2023-04-07T20:01:13;1.43;;;1.40;;
17006;SDS011;8620;51.168;4.154;2023-04-07T20:03:50;0.20;;;0.20;;
17006;SDS011;8620;51.168;4.154;2023-04-07T20:06:25;0.30;;;0.30;;
17006;SDS011;8620;51.168;4.154;2023-04-07T20:08:58;0.30;;;0.30;;
17006;SDS011;8620;51.168;4.154;2023-04-07T20:11:38;0.30;;;0.30;;
17006;SDS011;8620;51.168;4.154;2023-04-07T20:14:09;0.30;;;0.30;;
17006;SDS011;8620;51.168;4.154;2023-04-07T20:16:41;0.20;;;0.20;;
17006;SDS011;8620;51.168;4.154;2023-04-07T20:19:22;0.30;;;0.30;;
17006;SDS011;8620;51.168;4.154;2023-04-07T20:21:48;0.50;;;0.50;;
17006;SDS011;8620;51.168;4.154;2023-04-07T20:24:27;0.43;;;0.43;;
17006;SDS011;8620;51.168;4.154;2023-04-07T20:27:10;0.30;;;0.30;;
17006;SDS011;8620;51.168;4.154;2023-04-07T20:29:44;0.30;;;0.30;;
17006;SDS011;8620;51.168;4.154;2023-04-07T20:32:27;0.30;;;0.30;;
17006;SDS011;8620;51.168;4.154;2023-04-07T20:35:16;0.30;;;0.30;;
17006;SDS011;8620;51.168;4.154;2023-04-07T20:37:45;0.30;;;0.30;;
17006;SDS011;8620;51.168;4.154;2023-04-07T20:40:20;0.30;;;0.30;;
17006;SDS011;8620;51.168;4.154;2023-04-07T20:42:48;0.47;;;0.47;;
17006;SDS011;8620;51.168;4.154;2023-04-07T20:45:14;0.20;;;0.20;;
17006;SDS011;8620;51.168;4.154;2023-04-07T20:47:43;0.30;;;0.30;;
17006;SDS011;8620;51.168;4.154;2023-04-07T20:50:11;0.20;;;0.20;;
17006;SDS011;8620;51.168;4.154;2023-04-07T20:52:41;0.30;;;0.30;;
17006;SDS011;8620;51.168;4.154;2023-04-07T20:55:08;0.20;;;0.20;;
17006;SDS011;8620;51.168;4.154;2023-04-07T20:57:40;0.30;;;0.30;;
